Arcadia, Utah
Current Conditions -  °F | °C
As of 6:53 PM on Friday 24 Oct 2014 (Local Time) from KPUC Reporting Station
Clear Clear  
Wind Chill: 62°   Ceiling: Unl
Heat Index: 62°   Visibility: 10mi
Dew Point: 32°   Wind: 6mph
Humidity: 32%   Direction: 80°E
Pressure: 30.25"   Gusts: NA
Location:  39.9707°N, 110.477°W
Report Text: KPUC 250053Z AUTO 08005KT 10SM CLR 17/00 A3025 RMK AO2 SLP220 T01670000 TSNO
Loading
Personal Weather Stations






























Interactive Weather Map New forecast layout! Learn more

10-Day Weather Forecast

Advertisements
Track Severe Weather on mobile